Time;durP1;ratioP1;P1;durP2;ratioP2;P2;SDS_P1;SDS_P2;PMS_P1;PMS_P2;Temp;Humidity;BMP_temperature;BMP_pressure;BME280_temperature;BME280_humidity;BME280_pressure;Samples;Min_cycle;Max_cycle;Signal;HPM_P1;HPM_P2
2022/01/19 00:01:38;;;;;;;3.05;1.40;;;4.20;99.90;;;;;;5073394;28;20048;-67
2022/01/19 00:04:05;;;;;;;4.68;1.67;;;4.20;99.90;;;;;;5073358;28;20389;-67
2022/01/19 00:06:32;;;;;;;3.42;1.50;;;4.20;99.90;;;;;;5073301;28;20087;-67
2022/01/19 00:08:59;;;;;;;5.93;1.65;;;4.20;99.90;;;;;;5073321;28;20080;-67
2022/01/19 00:11:26;;;;;;;4.75;1.77;;;4.20;99.90;;;;;;5073302;28;20512;-68
2022/01/19 00:13:53;;;;;;;3.83;1.45;;;4.10;99.90;;;;;;5072996;28;20044;-66
2022/01/19 00:16:22;;;;;;;3.00;1.40;;;4.00;99.90;;;;;;5073100;28;20144;-68
2022/01/19 00:18:49;;;;;;;4.73;1.87;;;4.10;99.90;;;;;;5073134;28;20080;-68
2022/01/19 00:21:16;;;;;;;3.42;1.52;;;4.10;99.90;;;;;;5073122;28;20594;-67
2022/01/19 00:23:43;;;;;;;3.57;1.50;;;4.00;99.90;;;;;;5072897;28;20135;-67
2022/01/19 00:26:10;;;;;;;4.03;1.53;;;4.00;99.90;;;;;;5072829;28;20059;-67
2022/01/19 00:28:37;;;;;;;3.93;1.50;;;4.00;99.90;;;;;;5072924;28;20505;-68
2022/01/19 00:31:04;;;;;;;3.70;1.50;;;3.90;99.90;;;;;;5073035;28;20108;-67
2022/01/19 00:33:32;;;;;;;5.80;1.45;;;3.90;99.90;;;;;;5072869;28;20338;-67
2022/01/19 00:35:59;;;;;;;3.72;1.40;;;3.90;99.90;;;;;;5072482;28;20465;-68
2022/01/19 00:38:26;;;;;;;3.03;1.50;;;3.90;99.90;;;;;;5073247;28;20127;-67
2022/01/19 00:40:55;;;;;;;2.85;1.20;;;3.90;99.90;;;;;;5072430;28;20131;-68
2022/01/19 00:43:21;;;;;;;2.70;1.00;;;3.90;99.90;;;;;;5072648;28;20052;-67
2022/01/19 00:45:48;;;;;;;2.17;1.10;;;3.90;99.90;;;;;;5072475;28;20098;-67
2022/01/19 00:48:15;;;;;;;2.37;1.30;;;3.90;99.90;;;;;;5072800;28;20094;-66
2022/01/19 00:50:44;;;;;;;3.17;1.50;;;3.80;99.90;;;;;;5072541;28;20173;-66
2022/01/19 00:53:11;;;;;;;4.38;1.60;;;3.90;99.90;;;;;;5072543;28;20068;-68
2022/01/19 00:55:38;;;;;;;3.58;1.42;;;3.90;99.90;;;;;;5072166;28;20148;-67
2022/01/19 00:58:04;;;;;;;2.87;1.37;;;3.80;99.90;;;;;;5072746;28;20152;-67
2022/01/19 01:00:32;;;;;;;3.30;1.40;;;3.80;99.90;;;;;;5072826;28;20127;-67
2022/01/19 01:02:59;;;;;;;4.70;1.50;;;3.70;99.90;;;;;;5072699;28;20056;-67
2022/01/19 01:05:26;;;;;;;6.03;1.40;;;3.70;99.90;;;;;;5072525;28;20135;-66
2022/01/19 01:07:54;;;;;;;2.23;1.30;;;3.70;99.90;;;;;;5073068;28;20098;-67
2022/01/19 01:10:21;;;;;;;3.27;1.80;;;3.60;99.90;;;;;;5072616;28;20127;-66
2022/01/19 01:12:50;;;;;;;4.17;1.70;;;3.70;99.90;;;;;;5072846;28;20053;-67
2022/01/19 01:18:19;;;;;;;8.15;1.70;;;3.70;99.90;;;;;;5073642;28;20044;-67
2022/01/19 01:20:48;;;;;;;2.07;1.37;;;3.60;99.90;;;;;;5089113;28;20559;-67
2022/01/19 01:23:18;;;;;;;3.50;1.73;;;3.60;99.90;;;;;;5085458;28;20191;-67
2022/01/19 01:25:45;;;;;;;3.80;1.60;;;3.70;99.90;;;;;;5090390;28;20064;-69
2022/01/19 01:28:13;;;;;;;5.47;2.20;;;3.70;99.90;;;;;;5091145;28;20087;-67
2022/01/19 01:30:40;;;;;;;4.37;1.90;;;3.70;99.90;;;;;;5091205;28;20117;-66
2022/01/19 01:33:08;;;;;;;3.53;1.60;;;3.60;99.90;;;;;;5090126;28;20390;-67
2022/01/19 01:35:35;;;;;;;3.10;1.50;;;3.60;99.90;;;;;;5088645;28;20056;-66
2022/01/19 01:38:03;;;;;;;4.00;1.90;;;3.60;99.90;;;;;;5085431;28;20084;-67
2022/01/19 01:40:33;;;;;;;4.60;2.00;;;3.50;99.90;;;;;;5089234;28;20076;-66
2022/01/19 01:43:02;;;;;;;4.27;1.80;;;3.40;99.90;;;;;;5091075;28;20188;-66
2022/01/19 01:45:32;;;;;;;3.53;1.60;;;3.40;99.90;;;;;;5090406;28;20044;-66
2022/01/19 01:48:10;;;;;;;4.67;1.70;;;3.40;99.90;;;;;;5089373;28;20052;-66
2022/01/19 01:53:28;;;;;;;3.07;1.80;;;3.30;99.90;;;;;;5093074;28;20426;-66
2022/01/19 01:56:02;;;;;;;4.03;1.87;;;3.40;99.90;;;;;;5092643;28;20049;-67
2022/01/19 01:58:31;;;;;;;5.73;2.10;;;3.50;99.90;;;;;;5092544;28;20052;-67
2022/01/19 02:00:58;;;;;;;3.60;1.90;;;3.40;99.90;;;;;;5091856;28;20079;-66
2022/01/19 02:03:26;;;;;;;3.50;1.80;;;3.40;99.90;;;;;;5092535;28;20075;-66
2022/01/19 02:08:52;;;;;;;5.33;2.27;;;3.40;99.90;;;;;;5068223;28;20041;-66
2022/01/19 02:22:34;;;;;;;6.20;2.33;;;3.30;99.90;;;;;;5079107;28;20052;-67
2022/01/19 02:25:03;;;;;;;4.27;2.10;;;3.30;99.90;;;;;;5075715;28;20048;-67
2022/01/19 02:41:13;;;;;;;4.73;2.50;;;3.20;99.90;;;;;;5076441;28;20182;-67
2022/01/19 02:43:45;;;;;;;4.93;2.40;;;3.20;99.90;;;;;;5075302;28;20455;-67
2022/01/19 02:49:15;;;;;;;4.13;2.35;;;3.20;99.90;;;;;;5070910;28;20492;-67
2022/01/19 02:51:45;;;;;;;4.20;2.40;;;3.20;99.90;;;;;;5074641;28;20101;-67
2022/01/19 02:54:13;;;;;;;6.07;2.70;;;3.30;99.90;;;;;;5074495;28;20783;-67
2022/01/19 02:56:43;;;;;;;6.07;2.47;;;3.20;99.90;;;;;;5073813;28;20063;-69
2022/01/19 02:59:16;;;;;;;4.77;2.80;;;3.20;99.90;;;;;;5074675;28;20143;-67
2022/01/19 03:09:57;;;;;;;5.10;2.47;;;3.20;99.90;;;;;;5074511;28;20060;-68
2022/01/19 03:12:24;;;;;;;4.60;2.50;;;3.20;99.90;;;;;;5074203;28;20136;-68
2022/01/19 03:14:51;;;;;;;4.93;2.50;;;3.10;99.90;;;;;;5073687;28;20052;-68
2022/01/19 03:17:18;;;;;;;5.17;2.80;;;3.10;99.90;;;;;;5074158;28;20044;-68
2022/01/19 03:19:46;;;;;;;10.27;3.13;;;3.10;99.90;;;;;;5074246;28;20055;-67
2022/01/19 03:22:16;;;;;;;4.63;2.20;;;3.10;99.90;;;;;;5074388;28;20102;-67
2022/01/19 03:24:49;;;;;;;3.60;1.90;;;3.10;99.90;;;;;;5072524;28;20099;-68
2022/01/19 03:27:16;;;;;;;5.13;2.50;;;3.10;99.90;;;;;;5071668;28;20060;-67
2022/01/19 03:29:44;;;;;;;5.13;2.20;;;3.00;99.90;;;;;;5073506;28;20048;-68
2022/01/19 03:32:11;;;;;;;4.97;2.30;;;3.00;99.90;;;;;;5073950;28;20139;-68
2022/01/19 03:34:39;;;;;;;5.53;2.50;;;3.10;99.90;;;;;;5074069;28;20123;-67
2022/01/19 03:37:06;;;;;;;4.33;2.23;;;3.10;99.90;;;;;;5085598;28;20044;-67
2022/01/19 03:39:34;;;;;;;5.77;2.20;;;3.10;99.90;;;;;;5093965;28;20125;-66
2022/01/19 03:42:01;;;;;;;3.33;2.00;;;3.10;99.90;;;;;;5093736;28;20058;-67
2022/01/19 03:44:28;;;;;;;4.57;2.17;;;3.10;99.90;;;;;;5093516;28;20087;-66
2022/01/19 03:46:57;;;;;;;3.70;2.30;;;3.00;99.90;;;;;;5083599;28;20052;-66
2022/01/19 03:49:25;;;;;;;5.80;2.63;;;3.00;99.90;;;;;;5088290;28;20071;-66
2022/01/19 03:51:52;;;;;;;4.33;2.23;;;2.90;99.90;;;;;;5093711;28;20113;-67
2022/01/19 03:54:20;;;;;;;4.27;2.40;;;2.90;99.90;;;;;;5093543;28;20130;-67
2022/01/19 03:56:48;;;;;;;4.73;2.17;;;3.00;99.90;;;;;;5110216;22;20108;-68
2022/01/19 03:59:15;;;;;;;5.00;2.37;;;2.90;99.90;;;;;;5112498;28;20047;-68
2022/01/19 04:01:42;;;;;;;4.13;2.10;;;2.90;99.90;;;;;;5112692;28;20043;-69
2022/01/19 04:04:30;;;;;;;5.27;2.20;;;2.80;99.90;;;;;;5093379;28;20491;-69
2022/01/19 04:07:01;;;;;;;4.70;2.30;;;2.90;99.90;;;;;;5093420;28;20148;-68
2022/01/19 04:09:30;;;;;;;4.93;2.27;;;2.90;99.90;;;;;;5093052;28;20062;-68
2022/01/19 04:11:58;;;;;;;6.40;2.30;;;2.90;99.90;;;;;;5093227;28;20113;-68
2022/01/19 04:14:28;;;;;;;5.83;2.70;;;2.90;99.90;;;;;;5092547;28;20113;-68
2022/01/19 04:16:57;;;;;;;6.20;3.00;;;3.00;99.90;;;;;;5092910;28;20052;-68
2022/01/19 04:19:28;;;;;;;5.13;2.70;;;2.90;99.90;;;;;;5093120;28;20054;-68
2022/01/19 04:21:56;;;;;;;4.90;2.30;;;2.90;99.90;;;;;;5092938;28;20087;-68
2022/01/19 04:24:24;;;;;;;5.07;2.33;;;2.90;99.90;;;;;;5092963;28;20135;-69
2022/01/19 04:29:38;;;;;;;5.87;1.97;;;2.90;99.90;;;;;;5092847;28;20051;-69
2022/01/19 04:32:11;;;;;;;4.73;2.10;;;2.90;99.90;;;;;;5092770;28;20059;-68
2022/01/19 04:34:39;;;;;;;5.40;2.20;;;2.90;99.90;;;;;;5092846;28;20048;-69
2022/01/19 04:48:25;;;;;;;5.93;2.50;;;2.70;99.90;;;;;;5070883;28;20052;-68
2022/01/19 05:01:54;;;;;;;6.93;2.90;;;2.70;99.90;;;;;;5092204;28;20043;-69
2022/01/19 05:04:35;;;;;;;7.43;2.67;;;2.70;99.90;;;;;;5092161;28;20048;-68
2022/01/19 05:07:14;;;;;;;8.17;3.07;;;2.70;99.90;;;;;;5092367;28;20048;-68
2022/01/19 05:15:18;;;;;;;6.97;3.27;;;2.70;99.90;;;;;;4990173;28;20500;-69
2022/01/19 05:17:47;;;;;;;6.50;3.00;;;2.70;99.90;;;;;;5068298;28;20055;-69
2022/01/19 05:20:14;;;;;;;9.20;3.60;;;2.70;99.90;;;;;;5091822;28;20054;-68
2022/01/19 05:22:41;;;;;;;5.97;3.13;;;2.80;99.90;;;;;;5091801;28;20135;-66
2022/01/19 05:25:09;;;;;;;8.73;3.73;;;2.70;99.90;;;;;;5091508;28;20075;-67
2022/01/19 05:27:36;;;;;;;6.80;3.77;;;2.70;99.90;;;;;;5091682;28;20139;-66
2022/01/19 05:30:03;;;;;;;8.13;3.97;;;2.70;99.90;;;;;;5092174;28;20466;-66
2022/01/19 05:32:30;;;;;;;7.53;3.57;;;2.80;99.90;;;;;;5091530;28;20083;-67
2022/01/19 05:34:58;;;;;;;7.20;3.33;;;2.70;99.90;;;;;;5091838;28;20084;-66
2022/01/19 05:37:25;;;;;;;10.60;3.80;;;2.70;99.90;;;;;;5091764;28;20561;-66
2022/01/19 05:39:52;;;;;;;8.47;3.93;;;2.70;99.90;;;;;;5091624;28;20087;-67
2022/01/19 05:42:19;;;;;;;8.03;3.53;;;2.70;99.90;;;;;;5091798;28;20135;-69
2022/01/19 05:44:47;;;;;;;10.20;4.37;;;2.70;99.90;;;;;;5091617;28;20131;-67
2022/01/19 05:47:15;;;;;;;10.27;4.40;;;2.60;99.90;;;;;;5092151;28;20134;-67
2022/01/19 05:49:44;;;;;;;9.47;4.03;;;2.70;99.90;;;;;;5091655;28;20131;-67
2022/01/19 05:52:12;;;;;;;8.77;4.53;;;2.70;99.90;;;;;;5091584;28;20044;-68
2022/01/19 05:54:40;;;;;;;7.73;4.07;;;2.60;99.90;;;;;;5091582;28;20054;-67
2022/01/19 05:57:07;;;;;;;7.87;4.33;;;2.60;99.90;;;;;;5091611;28;20512;-67
2022/01/19 05:59:34;;;;;;;8.37;4.27;;;2.50;99.90;;;;;;5091577;28;20137;-67
2022/01/19 06:02:01;;;;;;;8.43;4.33;;;2.50;99.90;;;;;;5091415;28;20579;-67
2022/01/19 06:04:28;;;;;;;9.00;4.30;;;2.30;99.90;;;;;;5091432;28;20154;-67
2022/01/19 06:06:56;;;;;;;9.10;4.30;;;2.30;99.90;;;;;;5091635;28;20075;-67
2022/01/19 06:09:34;;;;;;;9.73;4.70;;;2.20;99.90;;;;;;5091836;28;20067;-67
2022/01/19 06:12:04;;;;;;;10.13;5.27;;;2.10;99.90;;;;;;5091762;28;20083;-68
2022/01/19 06:14:32;;;;;;;10.07;4.90;;;2.10;99.90;;;;;;5091683;28;20064;-67
2022/01/19 06:16:59;;;;;;;8.70;4.80;;;2.10;99.90;;;;;;5091226;28;20059;-67
2022/01/19 06:19:26;;;;;;;10.23;4.90;;;2.10;99.90;;;;;;5091493;28;20139;-67
2022/01/19 06:21:53;;;;;;;8.53;4.53;;;2.10;99.90;;;;;;5091441;28;20419;-66
2022/01/19 06:24:20;;;;;;;9.57;4.63;;;2.10;99.90;;;;;;5091563;28;20116;-67
2022/01/19 06:26:48;;;;;;;12.23;6.27;;;2.10;99.90;;;;;;5091040;28;20139;-67
2022/01/19 06:29:15;;;;;;;8.67;4.83;;;2.10;99.90;;;;;;5091783;28;20044;-67
2022/01/19 06:31:43;;;;;;;11.33;5.23;;;2.10;99.90;;;;;;5091309;28;20337;-69
2022/01/19 06:34:10;;;;;;;13.57;5.80;;;2.10;99.90;;;;;;5091389;28;20052;-67
2022/01/19 06:36:37;;;;;;;9.60;4.77;;;2.00;99.90;;;;;;5091191;28;20490;-67
2022/01/19 06:39:04;;;;;;;9.97;5.73;;;2.00;99.90;;;;;;5094435;28;20139;-67
2022/01/19 06:41:31;;;;;;;12.27;5.70;;;1.90;99.90;;;;;;5094979;28;20147;-67
2022/01/19 06:43:59;;;;;;;8.70;5.10;;;1.90;99.90;;;;;;5095031;28;20083;-69
2022/01/19 06:46:26;;;;;;;13.27;5.33;;;1.90;99.90;;;;;;5094904;28;20165;-67
2022/01/19 06:48:54;;;;;;;12.27;5.67;;;1.80;99.90;;;;;;5094825;28;20136;-67
2022/01/19 06:51:21;;;;;;;11.40;5.43;;;1.70;99.90;;;;;;5094836;28;20058;-67
2022/01/19 06:53:48;;;;;;;12.83;5.80;;;1.70;99.90;;;;;;5094572;28;20040;-67
2022/01/19 06:56:16;;;;;;;11.77;5.80;;;1.60;99.90;;;;;;5094536;28;20134;-67
2022/01/19 06:58:43;;;;;;;10.57;5.90;;;1.60;99.90;;;;;;5094484;28;20087;-67
2022/01/19 07:01:11;;;;;;;11.27;6.00;;;1.60;99.90;;;;;;5094679;28;20131;-67
2022/01/19 07:03:38;;;;;;;10.53;6.27;;;1.40;99.90;;;;;;5094431;28;20135;-67
2022/01/19 07:06:07;;;;;;;12.47;6.00;;;1.30;99.90;;;;;;5089656;28;20126;-67
2022/01/19 07:08:34;;;;;;;12.07;6.00;;;1.20;99.90;;;;;;5077451;28;20388;-67
2022/01/19 07:11:01;;;;;;;9.47;5.67;;;1.40;99.90;;;;;;5092453;28;20134;-68
2022/01/19 07:13:28;;;;;;;11.13;5.90;;;1.30;99.90;;;;;;5092725;28;20052;-68
2022/01/19 07:15:55;;;;;;;12.70;7.50;;;1.20;99.90;;;;;;5091960;28;20048;-68
2022/01/19 07:18:23;;;;;;;13.83;6.57;;;1.30;99.90;;;;;;5092345;28;20139;-68
2022/01/19 07:20:50;;;;;;;13.83;7.27;;;1.30;99.90;;;;;;5093534;28;20087;-68
2022/01/19 07:23:17;;;;;;;17.00;7.13;;;1.20;99.90;;;;;;5096033;28;20519;-68
2022/01/19 07:25:44;;;;;;;10.83;6.17;;;1.30;99.90;;;;;;5098822;28;20109;-68
2022/01/19 07:28:11;;;;;;;12.97;6.73;;;1.40;99.90;;;;;;5097793;28;20120;-68
2022/01/19 07:30:38;;;;;;;14.20;6.27;;;1.40;99.90;;;;;;5094627;28;20132;-68
2022/01/19 07:33:05;;;;;;;14.27;6.63;;;1.60;99.90;;;;;;5098690;28;20140;-68
2022/01/19 07:35:34;;;;;;;14.90;7.00;;;1.60;99.90;;;;;;5098209;28;20126;-68
2022/01/19 07:38:00;;;;;;;11.43;6.53;;;1.70;99.90;;;;;;5098342;28;20098;-68
2022/01/19 07:40:27;;;;;;;13.20;7.03;;;1.70;99.90;;;;;;5098414;28;20132;-68
2022/01/19 07:42:54;;;;;;;14.10;7.10;;;1.80;99.90;;;;;;5098281;28;20084;-68
2022/01/19 07:45:21;;;;;;;15.13;7.60;;;1.80;99.90;;;;;;5096769;28;20048;-68
2022/01/19 07:47:48;;;;;;;11.77;6.43;;;1.90;99.90;;;;;;5094048;28;20144;-68
2022/01/19 07:50:16;;;;;;;12.13;6.00;;;1.90;99.90;;;;;;5092909;28;20424;-68
2022/01/19 07:52:45;;;;;;;16.43;7.23;;;2.00;99.90;;;;;;5093549;28;20060;-68
2022/01/19 07:55:11;;;;;;;12.90;6.23;;;2.00;99.90;;;;;;5093428;28;20071;-68
2022/01/19 07:57:40;;;;;;;13.00;5.97;;;2.00;99.90;;;;;;5093367;28;20488;-68
2022/01/19 08:00:09;;;;;;;11.10;6.03;;;2.10;99.90;;;;;;5093680;28;20136;-68
2022/01/19 08:02:35;;;;;;;13.30;6.40;;;2.20;99.90;;;;;;5093330;28;20499;-68
2022/01/19 08:05:03;;;;;;;11.80;5.93;;;2.10;99.90;;;;;;5093352;28;20080;-68
2022/01/19 08:07:30;;;;;;;12.83;6.27;;;2.10;99.90;;;;;;5093504;28;20054;-68
2022/01/19 08:09:58;;;;;;;12.43;6.37;;;2.10;99.90;;;;;;5093179;28;20060;-68
2022/01/19 08:12:25;;;;;;;14.63;7.43;;;2.00;99.90;;;;;;5093103;28;20131;-68
2022/01/19 08:14:52;;;;;;;12.53;6.47;;;2.10;99.90;;;;;;5093168;28;20763;-68
2022/01/19 08:17:19;;;;;;;12.90;7.37;;;2.20;99.90;;;;;;5093149;28;20055;-68
2022/01/19 08:19:47;;;;;;;11.90;5.93;;;2.30;99.90;;;;;;5093141;28;20048;-68
2022/01/19 08:22:15;;;;;;;14.60;7.70;;;2.30;99.90;;;;;;5093554;28;20051;-68
2022/01/19 08:24:42;;;;;;;15.63;7.10;;;2.30;99.90;;;;;;5092976;28;20048;-68
2022/01/19 08:27:10;;;;;;;15.97;6.40;;;2.30;99.90;;;;;;5093055;28;20456;-68
2022/01/19 08:29:38;;;;;;;12.70;6.60;;;2.40;99.90;;;;;;5092990;28;20130;-68
2022/01/19 08:32:05;;;;;;;14.20;6.90;;;2.40;99.90;;;;;;5092790;28;20139;-68
2022/01/19 08:34:32;;;;;;;17.07;7.20;;;2.30;99.90;;;;;;5092735;28;20140;-68
2022/01/19 08:37:00;;;;;;;13.40;5.80;;;2.90;99.90;;;;;;5092405;28;20500;-68
2022/01/19 08:39:27;;;;;;;21.03;6.63;;;3.60;99.90;;;;;;5092757;28;20559;-69
2022/01/19 08:41:55;;;;;;;14.57;7.20;;;3.00;99.90;;;;;;5093132;28;20485;-68
2022/01/19 08:44:24;;;;;;;13.33;6.10;;;2.90;99.90;;;;;;5092725;28;20143;-68
2022/01/19 08:46:51;;;;;;;14.33;6.90;;;2.90;99.90;;;;;;5092456;28;20072;-68
2022/01/19 08:49:18;;;;;;;13.40;6.20;;;3.00;99.90;;;;;;5092578;28;20135;-68
2022/01/19 08:51:44;;;;;;;14.40;6.77;;;3.00;99.90;;;;;;5092351;28;20484;-68
2022/01/19 08:54:11;;;;;;;19.27;6.27;;;3.00;99.90;;;;;;5092686;28;20094;-68
2022/01/19 08:56:39;;;;;;;14.80;6.40;;;3.20;99.90;;;;;;5092307;28;20048;-68
2022/01/19 08:59:06;;;;;;;13.90;6.13;;;3.30;99.90;;;;;;5092633;28;20075;-68
2022/01/19 09:01:34;;;;;;;14.60;5.57;;;3.40;99.90;;;;;;5092073;28;20139;-68
2022/01/19 09:04:01;;;;;;;11.70;5.07;;;3.40;99.90;;;;;;5092120;28;20131;-68
2022/01/19 09:06:28;;;;;;;17.13;6.03;;;3.40;99.90;;;;;;5092205;28;20151;-68
2022/01/19 09:08:55;;;;;;;12.93;5.37;;;3.50;99.90;;;;;;5093096;28;20052;-68
2022/01/19 09:11:22;;;;;;;12.23;5.27;;;3.70;99.90;;;;;;5092276;28;20078;-68
2022/01/19 09:13:49;;;;;;;14.10;4.67;;;3.90;99.90;;;;;;5092411;28;20056;-68
2022/01/19 09:16:17;;;;;;;11.80;5.33;;;4.00;99.90;;;;;;5092384;28;20059;-68
2022/01/19 09:18:45;;;;;;;13.23;4.47;;;4.00;99.90;;;;;;5092771;28;20139;-68
2022/01/19 09:21:12;;;;;;;10.50;4.60;;;4.10;99.90;;;;;;5092798;28;20130;-68
2022/01/19 09:23:39;;;;;;;10.43;3.97;;;3.90;99.90;;;;;;5092237;28;20481;-68
2022/01/19 09:26:06;;;;;;;9.87;3.83;;;4.10;99.90;;;;;;5092057;28;20138;-68
2022/01/19 09:28:33;;;;;;;10.33;3.70;;;4.00;99.90;;;;;;5092376;28;20504;-68
2022/01/19 09:31:04;;;;;;;10.90;3.20;;;4.40;99.90;;;;;;5092538;28;20521;-68
2022/01/19 09:33:31;;;;;;;10.13;4.13;;;4.20;99.90;;;;;;5092416;28;20121;-68
2022/01/19 09:36:18;;;;;;;9.60;4.00;;;4.20;99.90;;;;;;5091987;28;20147;-68
2022/01/19 09:38:45;;;;;;;13.77;4.45;;;4.20;99.90;;;;;;5091799;28;20135;-68
2022/01/19 09:41:12;;;;;;;9.00;4.25;;;7.30;99.90;;;;;;5091713;28;20135;-68
2022/01/19 09:43:39;;;;;;;9.07;4.50;;;8.60;99.90;;;;;;5093091;28;20498;-68
2022/01/19 09:46:06;;;;;;;9.85;3.50;;;7.70;99.90;;;;;;5094223;28;20048;-68
2022/01/19 09:48:34;;;;;;;8.82;3.50;;;10.40;99.90;;;;;;5094171;28;20060;-70
2022/01/19 09:51:02;;;;;;;10.05;3.70;;;10.40;99.90;;;;;;5092602;28;20420;-68
2022/01/19 09:53:29;;;;;;;8.70;3.80;;;11.10;99.90;;;;;;5092116;28;20079;-68
2022/01/19 09:55:56;;;;;;;9.43;3.30;;;12.90;99.90;;;;;;5091658;28;20135;-68
2022/01/19 09:58:23;;;;;;;9.27;3.50;;;10.70;99.90;;;;;;5200994;22;20067;-70
2022/01/19 10:00:51;;;;;;;9.15;3.00;;;12.60;99.90;;;;;;5112098;28;20083;-70
2022/01/19 10:03:21;;;;;;;7.82;3.30;;;11.40;99.90;;;;;;5112084;28;20087;-70
2022/01/19 10:06:01;;;;;;;8.00;3.30;;;11.80;99.90;;;;;;5111742;28;20055;-70
2022/01/19 10:08:36;;;;;;;9.48;3.50;;;11.50;99.90;;;;;;5111934;28;20054;-70
2022/01/19 10:11:27;;;;;;;7.15;3.30;;;10.10;99.90;;;;;;5111904;28;20485;-70
2022/01/19 10:17:01;;;;;;;13.50;4.53;;;6.00;99.90;;;;;;5116027;28;20534;-70
2022/01/19 10:19:31;;;;;;;11.75;3.60;;;5.70;99.90;;;;;;5116097;28;20114;-70
2022/01/19 10:22:17;;;;;;;9.02;3.75;;;4.90;99.90;;;;;;5116130;28;20134;-70
2022/01/19 10:24:48;;;;;;;14.48;5.15;;;4.70;99.90;;;;;;5116053;28;20059;-69
2022/01/19 10:27:26;;;;;;;11.75;4.53;;;4.30;99.90;;;;;;5115763;28;20055;-69
2022/01/19 10:29:55;;;;;;;12.65;4.75;;;4.10;99.90;;;;;;5115816;28;20094;-67
2022/01/19 10:32:23;;;;;;;15.43;4.67;;;3.80;99.90;;;;;;5115714;28;20082;-67
2022/01/19 10:34:51;;;;;;;16.33;5.67;;;3.80;99.90;;;;;;5115424;28;20130;-67
2022/01/19 10:37:24;;;;;;;14.30;5.93;;;3.60;99.90;;;;;;5115527;28;20132;-69
2022/01/19 10:39:54;;;;;;;15.50;5.70;;;3.70;99.90;;;;;;5115619;28;20131;-67
2022/01/19 10:42:23;;;;;;;15.23;5.93;;;3.70;99.90;;;;;;5115577;28;20146;-67
2022/01/19 10:44:53;;;;;;;16.33;6.03;;;3.50;99.90;;;;;;5115253;28;20134;-67
2022/01/19 10:47:37;;;;;;;12.80;5.33;;;3.40;99.90;;;;;;5115272;28;20047;-68
2022/01/19 10:50:05;;;;;;;12.43;5.60;;;3.50;99.90;;;;;;5115570;28;20511;-67
2022/01/19 10:52:33;;;;;;;16.17;5.50;;;3.40;99.90;;;;;;5115477;28;20483;-67
2022/01/19 10:55:05;;;;;;;14.73;5.80;;;3.40;99.90;;;;;;5114936;28;20048;-67
2022/01/19 10:57:38;;;;;;;14.77;6.20;;;3.30;99.90;;;;;;5114986;28;20134;-67
2022/01/19 11:00:12;;;;;;;16.93;5.57;;;3.30;99.90;;;;;;5115357;28;20130;-67
2022/01/19 11:02:40;;;;;;;15.03;6.23;;;3.40;99.90;;;;;;5114982;28;20046;-67
2022/01/19 11:05:08;;;;;;;12.80;5.97;;;3.40;99.90;;;;;;5114656;28;20571;-68
2022/01/19 11:07:35;;;;;;;13.10;5.73;;;3.40;99.90;;;;;;5114925;28;20087;-67
2022/01/19 11:10:10;;;;;;;16.80;6.07;;;3.20;99.90;;;;;;5115095;28;20055;-67
2022/01/19 11:12:44;;;;;;;13.77;6.53;;;3.10;99.90;;;;;;5114825;28;20499;-67
2022/01/19 11:15:13;;;;;;;16.97;6.63;;;3.10;99.90;;;;;;5114779;28;20056;-67
2022/01/19 11:17:40;;;;;;;15.83;6.23;;;2.90;99.90;;;;;;5114712;28;20052;-67
2022/01/19 11:20:10;;;;;;;17.50;7.33;;;3.00;99.90;;;;;;5115115;28;20445;-68
2022/01/19 11:23:02;;;;;;;16.07;7.03;;;3.00;99.90;;;;;;5114850;28;20093;-67
2022/01/19 11:25:40;;;;;;;18.27;6.97;;;2.80;99.90;;;;;;5113255;28;20130;-67
2022/01/19 11:28:08;;;;;;;19.17;7.77;;;2.80;99.90;;;;;;5114538;28;20051;-67
2022/01/19 11:30:35;;;;;;;19.67;7.57;;;2.70;99.90;;;;;;5114495;28;20043;-67
2022/01/19 11:33:15;;;;;;;16.63;7.07;;;2.60;99.90;;;;;;5114360;28;20086;-67
2022/01/19 11:35:44;;;;;;;15.70;6.97;;;2.60;99.90;;;;;;5114345;28;20130;-67
2022/01/19 11:38:32;;;;;;;18.27;7.33;;;2.60;99.90;;;;;;5114561;28;20519;-67
2022/01/19 11:41:00;;;;;;;;;;;2.60;99.90;;;;;;5114879;28;20047;-67
2022/01/19 11:43:29;;;;;;;15.73;8.00;;;2.60;99.90;;;;;;5114157;28;19927;-67
2022/01/19 11:45:57;;;;;;;13.67;7.73;;;2.80;99.90;;;;;;5114580;28;20044;-67
2022/01/19 11:48:27;;;;;;;15.13;7.30;;;2.60;99.90;;;;;;5114217;28;20496;-67
2022/01/19 11:51:07;;;;;;;15.40;7.70;;;2.70;99.90;;;;;;5114316;28;20087;-67
2022/01/19 11:54:01;;;;;;;18.80;8.33;;;2.80;99.90;;;;;;5114407;28;20150;-67
2022/01/19 11:56:31;;;;;;;22.37;8.43;;;2.70;99.90;;;;;;5113832;28;20135;-67
2022/01/19 11:59:09;;;;;;;17.63;9.23;;;2.80;99.90;;;;;;5114085;28;20574;-67
2022/01/19 12:01:37;;;;;;;18.67;8.17;;;2.60;99.90;;;;;;5113953;28;20673;-67
2022/01/19 12:04:15;;;;;;;18.03;9.47;;;2.70;99.90;;;;;;5113995;28;20055;-67
2022/01/19 12:06:43;;;;;;;19.77;9.60;;;2.90;99.90;;;;;;5113774;28;20451;-67
2022/01/19 12:09:13;;;;;;;18.17;8.73;;;3.20;99.90;;;;;;5114444;28;20043;-67
2022/01/19 12:11:48;;;;;;;23.40;7.87;;;3.50;99.90;;;;;;5113987;28;20056;-67
2022/01/19 12:14:18;;;;;;;15.67;8.17;;;4.60;99.90;;;;;;5114021;28;20063;-67
2022/01/19 12:17:00;;;;;;;24.10;8.97;;;3.80;99.90;;;;;;5113220;28;20597;-67
2022/01/19 12:19:29;;;;;;;22.97;8.30;;;4.10;99.90;;;;;;5113482;28;20528;-67
2022/01/19 12:22:03;;;;;;;24.77;9.13;;;3.80;99.90;;;;;;5113707;28;20146;-67
2022/01/19 12:24:32;;;;;;;14.53;7.63;;;3.60;99.90;;;;;;5113870;28;20139;-67
2022/01/19 12:27:04;;;;;;;16.60;8.90;;;3.50;99.90;;;;;;5113485;28;20091;-67
2022/01/19 12:29:46;;;;;;;19.23;7.87;;;3.60;99.90;;;;;;5113455;28;20126;-67
2022/01/19 12:32:39;;;;;;;21.30;8.47;;;3.50;99.90;;;;;;5113617;28;20051;-67
2022/01/19 12:35:35;;;;;;;20.73;8.70;;;3.30;99.90;;;;;;5102244;28;20050;-67
2022/01/19 12:38:04;;;;;;;17.60;9.20;;;3.70;99.90;;;;;;5113463;28;20139;-67
2022/01/19 12:40:49;;;;;;;16.97;8.80;;;3.70;99.90;;;;;;5113592;28;20126;-70
2022/01/19 12:43:35;;;;;;;18.03;8.80;;;3.90;99.90;;;;;;5112970;28;20094;-69
2022/01/19 12:46:04;;;;;;;18.40;8.55;;;4.10;99.90;;;;;;5112845;28;20126;-67
2022/01/19 12:48:36;;;;;;;18.87;8.80;;;4.10;99.90;;;;;;5113292;28;20085;-69
2022/01/19 12:51:03;;;;;;;19.03;8.57;;;4.20;99.90;;;;;;5113667;28;20134;-67
2022/01/19 12:53:30;;;;;;;19.80;8.77;;;3.70;99.90;;;;;;5113053;28;20520;-67
2022/01/19 12:56:00;;;;;;;20.10;8.53;;;4.00;99.90;;;;;;5113301;28;20430;-67
2022/01/19 12:58:33;;;;;;;17.00;8.97;;;3.60;99.90;;;;;;5112697;28;20079;-67
2022/01/19 13:01:02;;;;;;;21.53;9.17;;;3.30;99.90;;;;;;5112775;28;20055;-68
2022/01/19 13:03:33;;;;;;;18.37;9.43;;;3.30;99.90;;;;;;5112718;28;20094;-67
2022/01/19 13:06:03;;;;;;;23.70;9.27;;;3.20;99.90;;;;;;5112530;28;20126;-67
2022/01/19 13:08:44;;;;;;;17.90;9.27;;;3.20;99.90;;;;;;5112813;28;20135;-68
2022/01/19 13:11:28;;;;;;;18.47;8.73;;;3.20;99.90;;;;;;5112691;28;20119;-67
2022/01/19 13:14:00;;;;;;;23.70;9.40;;;2.90;99.90;;;;;;5113082;28;20134;-67
2022/01/19 13:16:40;;;;;;;24.20;9.60;;;2.90;99.90;;;;;;5094518;28;20492;-67
2022/01/19 13:19:10;;;;;;;20.67;9.73;;;2.80;99.90;;;;;;5112647;28;20130;-67
2022/01/19 13:21:37;;;;;;;19.53;10.23;;;2.70;99.90;;;;;;5112157;28;20446;-67
2022/01/19 13:24:10;;;;;;;26.03;11.50;;;2.90;99.90;;;;;;5112325;28;20047;-67
2022/01/19 13:26:43;;;;;;;28.00;12.50;;;2.80;99.90;;;;;;5112333;28;20061;-67
2022/01/19 13:29:20;;;;;;;22.13;10.33;;;2.90;99.90;;;;;;5112454;28;20130;-67
2022/01/19 13:32:14;;;;;;;24.43;10.33;;;3.00;99.90;;;;;;5112560;28;20127;-67
2022/01/19 13:34:56;;;;;;;22.30;10.77;;;3.10;99.90;;;;;;5112262;28;20047;-67
2022/01/19 13:37:24;;;;;;;25.37;9.13;;;3.00;99.90;;;;;;5112905;28;20091;-67
2022/01/19 13:39:57;;;;;;;24.23;11.57;;;2.90;99.90;;;;;;5112222;28;20419;-67
2022/01/19 13:42:40;;;;;;;25.67;11.37;;;2.90;99.90;;;;;;5112630;28;20135;-68
2022/01/19 13:45:14;;;;;;;24.53;11.23;;;3.00;99.90;;;;;;5112482;28;20052;-67
2022/01/19 13:47:56;;;;;;;24.93;10.90;;;2.90;99.90;;;;;;5111901;28;20159;-68
2022/01/19 13:50:24;;;;;;;23.67;11.50;;;2.90;99.90;;;;;;5112620;28;20091;-67
2022/01/19 13:52:51;;;;;;;26.37;12.10;;;2.90;99.90;;;;;;5112567;28;20126;-68
2022/01/19 13:55:20;;;;;;;22.13;10.57;;;2.90;99.90;;;;;;5112551;28;20065;-68
2022/01/19 13:57:47;;;;;;;22.80;10.70;;;2.90;99.90;;;;;;5111905;28;20503;-67
2022/01/19 14:00:18;;;;;;;28.23;11.47;;;2.80;99.90;;;;;;5112273;28;20116;-67
2022/01/19 14:03:02;;;;;;;24.87;10.83;;;2.80;99.90;;;;;;5112138;28;20139;-67
2022/01/19 14:05:41;;;;;;;25.80;11.30;;;2.70;99.90;;;;;;5112558;28;20062;-68
2022/01/19 14:08:09;;;;;;;20.73;10.07;;;2.70;99.90;;;;;;5112321;28;20139;-68
2022/01/19 14:10:42;;;;;;;37.17;12.90;;;2.70;99.90;;;;;;5112167;28;20135;-68
2022/01/19 14:13:23;;;;;;;28.57;12.10;;;2.70;99.90;;;;;;5111997;28;20483;-68
2022/01/19 14:15:51;;;;;;;26.47;12.13;;;2.70;99.90;;;;;;5111922;28;20452;-68
2022/01/19 14:18:19;;;;;;;24.80;12.33;;;2.80;99.90;;;;;;5112004;28;20047;-68
2022/01/19 14:20:46;;;;;;;27.70;12.73;;;2.80;99.90;;;;;;5111812;28;20070;-68
2022/01/19 14:23:15;;;;;;;27.50;12.87;;;2.80;99.90;;;;;;5111878;28;20139;-68